Time,TemperatureF,DewpointF,PressureIn,WindDirection,WindDirectionDegrees,WindSpeedMPH,WindSpeedGustMPH,Humidity,HourlyPrecipIn,Conditions,Clouds,dailyrainin,SoftwareType,DateUTC
2013-03-09 00:00:00,32.5,17.3,30.21,NNW,338,7.6,12.3,53,0.00,,,0.00,VWS V14.01,2013-03-09 05:00:00,
2013-03-09 00:05:00,32.2,17.8,30.21,North,0,12.3,12.3,55,0.00,,,0.00,VWS V14.01,2013-03-09 05:05:00,
2013-03-09 00:10:00,32.2,17.8,30.21,WNW,292,10.7,12.3,55,0.00,,,0.00,VWS V14.01,2013-03-09 05:10:00,
2013-03-09 00:15:00,32.2,17.8,30.21,NNW,338,6.0,10.7,55,0.00,,,0.00,VWS V14.01,2013-03-09 05:15:00,
2013-03-09 00:20:00,31.8,17.5,30.21,NW,315,8.7,8.7,55,0.00,,,0.00,VWS V14.01,2013-03-09 05:20:00,
2013-03-09 00:25:00,31.8,17.1,30.21,NNW,338,4.9,8.7,54,0.00,,,0.00,VWS V14.01,2013-03-09 05:25:00,
2013-03-09 00:30:00,31.8,17.1,30.21,NNW,338,6.5,7.4,54,0.00,,,0.00,VWS V14.01,2013-03-09 05:30:00,
2013-03-09 00:35:00,31.6,17.3,30.21,NNW,338,5.4,6.5,55,0.00,,,0.00,VWS V14.01,2013-03-09 05:35:00,
2013-03-09 00:40:00,31.5,17.2,30.21,NNW,338,5.6,10.1,55,0.00,,,0.00,VWS V14.01,2013-03-09 05:40:00,
2013-03-09 00:45:00,31.5,17.2,30.21,NNW,338,5.6,6.7,55,0.00,,,0.00,VWS V14.01,2013-03-09 05:45:00,
2013-03-09 00:50:00,31.5,16.8,30.21,NNW,338,4.7,6.5,54,0.00,,,0.00,VWS V14.01,2013-03-09 05:50:00,
2013-03-09 00:55:00,31.5,16.8,30.21,NNW,338,7.6,10.3,54,0.00,,,0.00,VWS V14.01,2013-03-09 05:55:00,
2013-03-09 01:00:00,31.5,16.8,30.21,NW,315,8.1,10.3,54,0.00,,,0.00,VWS V14.01,2013-03-09 06:00:00,
2013-03-09 01:05:00,31.5,16.8,30.21,NNW,338,4.9,8.5,54,0.00,,,0.00,VWS V14.01,2013-03-09 06:05:00,
2013-03-09 01:10:00,31.5,16.8,30.21,NNW,338,6.0,7.6,54,0.00,,,0.00,VWS V14.01,2013-03-09 06:10:00,
2013-03-09 01:15:00,31.5,16.8,30.21,NW,315,6.0,8.7,54,0.00,,,0.00,VWS V14.01,2013-03-09 06:15:00,
2013-03-09 01:20:00,31.5,16.8,30.21,NNW,338,4.7,8.7,54,0.00,,,0.00,VWS V14.01,2013-03-09 06:20:00,
2013-03-09 01:25:00,31.5,16.8,30.21,NW,315,7.4,7.4,54,0.00,,,0.00,VWS V14.01,2013-03-09 06:25:00,
2013-03-09 01:30:00,31.5,16.8,30.21,NNW,338,10.1,10.1,54,0.00,,,0.00,VWS V14.01,2013-03-09 06:30:00,
2013-03-09 01:35:00,31.1,17.7,30.18,NNW,338,10.3,10.3,57,0.00,,,0.00,VWS V14.01,2013-03-09 06:35:00,
2013-03-09 01:40:00,31.1,17.7,30.18,NW,315,6.5,10.3,57,0.00,,,0.00,VWS V14.01,2013-03-09 06:40:00,
2013-03-09 01:45:00,31.1,18.1,30.18,NNW,338,14.5,14.5,58,0.00,,,0.00,VWS V14.01,2013-03-09 06:45:00,
2013-03-09 01:50:00,31.1,18.1,30.18,NW,315,5.4,7.8,58,0.00,,,0.00,VWS V14.01,2013-03-09 06:50:00,
2013-03-09 01:55:00,31.1,18.1,30.18,NNW,338,8.7,8.7,58,0.00,,,0.00,VWS V14.01,2013-03-09 06:55:00,
2013-03-09 02:00:00,30.9,17.9,30.18,NNW,338,2.5,8.7,58,0.00,,,0.00,VWS V14.01,2013-03-09 07:00:00,
2013-03-09 02:05:00,30.9,17.9,30.18,NW,315,4.3,6.5,58,0.00,,,0.00,VWS V14.01,2013-03-09 07:05:00,
2013-03-09 02:10:00,30.9,17.9,30.18,NE,45,2.5,4.3,58,0.00,,,0.00,VWS V14.01,2013-03-09 07:10:00,
2013-03-09 02:15:00,30.9,17.9,30.18,NNW,338,7.6,7.6,58,0.00,,,0.00,VWS V14.01,2013-03-09 07:15:00,
2013-03-09 02:20:00,30.7,18.1,30.18,NNW,338,3.8,10.1,59,0.00,,,0.00,VWS V14.01,2013-03-09 07:20:00,
2013-03-09 02:25:00,30.7,18.1,30.18,ENE,68,4.3,11.0,59,0.00,,,0.00,VWS V14.01,2013-03-09 07:25:00,
2013-03-09 02:30:00,30.7,18.1,30.18,NW,315,8.1,11.0,59,0.00,,,0.00,VWS V14.01,2013-03-09 07:30:00,
2013-03-09 02:35:00,30.7,18.1,30.18,NW,315,6.3,8.1,59,0.00,,,0.00,VWS V14.01,2013-03-09 07:35:00,
2013-03-09 02:40:00,30.7,18.1,30.18,North,0,6.0,6.3,59,0.00,,,0.00,VWS V14.01,2013-03-09 07:40:00,
2013-03-09 02:45:00,30.7,18.1,30.18,NNW,338,5.4,6.3,59,0.00,,,0.00,VWS V14.01,2013-03-09 07:45:00,
2013-03-09 02:50:00,30.7,18.1,30.18,NW,315,6.0,7.2,59,0.00,,,0.00,VWS V14.01,2013-03-09 07:50:00,
2013-03-09 02:55:00,30.7,18.1,30.18,NNW,338,4.9,7.2,59,0.00,,,0.00,VWS V14.01,2013-03-09 07:55:00,
2013-03-09 03:00:00,30.7,18.1,30.18,NNW,338,5.4,8.7,59,0.00,,,0.00,VWS V14.01,2013-03-09 08:00:00,
2013-03-09 03:05:00,30.2,18.4,30.18,NNW,338,5.8,5.8,61,0.00,,,0.00,VWS V14.01,2013-03-09 08:05:00,
2013-03-09 03:10:00,30.2,18.8,30.18,NW,315,10.1,10.1,62,0.00,,,0.00,VWS V14.01,2013-03-09 08:10:00,
2013-03-09 03:15:00,30.2,18.8,30.18,NNW,338,5.8,7.4,62,0.00,,,0.00,VWS V14.01,2013-03-09 08:15:00,
2013-03-09 03:20:00,30.2,18.8,30.18,NNW,338,3.4,5.8,62,0.00,,,0.00,VWS V14.01,2013-03-09 08:20:00,
2013-03-09 03:26:00,30.2,18.8,30.18,WNW,292,5.8,10.5,62,0.00,,,0.00,VWS V14.01,2013-03-09 08:26:00,
2013-03-09 03:30:00,29.3,19.0,30.21,NNW,338,2.5,8.7,65,0.00,,,0.00,VWS V14.01,2013-03-09 08:30:00,
2013-03-09 03:31:00,29.8,18.4,30.18,NNW,338,2.7,5.8,62,0.00,,,0.00,VWS V14.01,2013-03-09 08:31:00,
2013-03-09 03:36:00,29.8,18.8,30.18,NW,315,3.1,5.6,63,0.00,,,0.00,VWS V14.01,2013-03-09 08:36:00,
2013-03-09 03:41:00,29.8,18.8,30.18,WNW,292,4.0,8.5,63,0.00,,,0.00,VWS V14.01,2013-03-09 08:41:00,
2013-03-09 03:46:00,29.8,18.8,30.18,NW,315,3.8,9.8,63,0.00,,,0.00,VWS V14.01,2013-03-09 08:46:00,
2013-03-09 03:51:00,29.8,18.8,30.18,NNW,338,3.6,5.6,63,0.00,,,0.00,VWS V14.01,2013-03-09 08:51:00,
2013-03-09 03:56:00,29.7,18.6,30.18,NNW,338,2.7,5.6,63,0.00,,,0.00,VWS V14.01,2013-03-09 08:56:00,
2013-03-09 04:00:00,28.9,19.0,30.21,NW,315,6.5,7.8,66,0.00,,,0.00,VWS V14.01,2013-03-09 09:00:00,
2013-03-09 04:01:00,29.5,18.8,30.18,NW,315,3.4,5.6,64,0.00,,,0.00,VWS V14.01,2013-03-09 09:01:00,
2013-03-09 04:06:00,29.5,18.8,30.18,NNW,338,5.6,6.0,64,0.00,,,0.00,VWS V14.01,2013-03-09 09:06:00,
2013-03-09 04:11:00,29.5,18.8,30.18,NNW,338,3.8,7.6,64,0.00,,,0.00,VWS V14.01,2013-03-09 09:11:00,
2013-03-09 04:16:00,29.5,18.8,30.18,NNW,338,2.7,10.1,64,0.00,,,0.00,VWS V14.01,2013-03-09 09:16:00,
2013-03-09 04:21:00,29.5,18.8,30.21,NNW,338,3.6,7.4,64,0.00,,,0.00,VWS V14.01,2013-03-09 09:21:00,
2013-03-09 04:26:00,29.3,19.0,30.21,NNW,338,2.5,8.7,65,0.00,,,0.00,VWS V14.01,2013-03-09 09:26:00,
2013-03-09 04:30:00,29.3,19.0,30.21,NNW,338,2.5,8.7,65,0.00,,,0.00,VWS V14.01,2013-03-09 09:30:00,
2013-03-09 04:31:00,29.1,19.2,30.21,NNW,338,6.5,6.5,66,0.00,,,0.00,VWS V14.01,2013-03-09 09:31:00,
2013-03-09 04:36:00,29.1,19.2,30.21,North,0,7.2,7.2,66,0.00,,,0.00,VWS V14.01,2013-03-09 09:36:00,
2013-03-09 04:41:00,28.9,19.0,30.21,NNW,338,7.4,7.4,66,0.00,,,0.00,VWS V14.01,2013-03-09 09:41:00,
2013-03-09 04:46:00,28.9,19.4,30.21,NW,315,8.1,8.1,67,0.00,,,0.00,VWS V14.01,2013-03-09 09:46:00,
2013-03-09 04:51:00,28.9,19.0,30.21,NW,315,3.8,12.1,66,0.00,,,0.00,VWS V14.01,2013-03-09 09:51:00,
2013-03-09 04:56:00,28.9,19.0,30.21,NW,315,6.5,7.8,66,0.00,,,0.00,VWS V14.01,2013-03-09 09:56:00,
2013-03-09 05:00:00,28.0,19.5,30.18,NNW,338,7.2,7.2,70,0.00,,,0.00,VWS V14.01,2013-03-09 10:00:00,
2013-03-09 05:01:00,28.8,19.2,30.21,North,0,3.4,6.0,67,0.00,,,0.00,VWS V14.01,2013-03-09 10:01:00,
2013-03-09 05:06:00,28.8,19.2,30.21,NNW,338,4.9,4.9,67,0.00,,,0.00,VWS V14.01,2013-03-09 10:06:00,
2013-03-09 05:11:00,28.6,19.4,30.21,NNW,338,3.4,10.1,68,0.00,,,0.00,VWS V14.01,2013-03-09 10:11:00,
2013-03-09 05:16:00,28.6,19.4,30.21,NW,315,5.6,12.1,68,0.00,,,0.00,VWS V14.01,2013-03-09 10:16:00,
2013-03-09 05:21:00,28.6,19.0,30.21,NNW,338,4.0,6.3,67,0.00,,,0.00,VWS V14.01,2013-03-09 10:21:00,
2013-03-09 05:26:00,28.6,19.0,30.21,NNW,338,6.5,7.2,67,0.00,,,0.00,VWS V14.01,2013-03-09 10:26:00,
2013-03-09 05:30:00,28.2,19.7,30.21,NNW,338,2.7,7.2,70,0.00,,,0.00,VWS V14.01,2013-03-09 10:30:00,
2013-03-09 05:31:00,28.4,19.2,30.21,NNW,338,5.6,6.5,68,0.00,,,0.00,VWS V14.01,2013-03-09 10:31:00,
2013-03-09 05:36:00,28.4,19.2,30.21,NNW,338,7.6,7.6,68,0.00,,,0.00,VWS V14.01,2013-03-09 10:36:00,
2013-03-09 05:41:00,28.4,19.2,30.21,NW,315,3.4,7.6,68,0.00,,,0.00,VWS V14.01,2013-03-09 10:41:00,
2013-03-09 05:46:00,28.4,19.2,30.21,NNW,338,3.8,5.6,68,0.00,,,0.00,VWS V14.01,2013-03-09 10:46:00,
2013-03-09 05:51:00,28.0,19.5,30.18,NW,315,5.6,5.6,70,0.00,,,0.00,VWS V14.01,2013-03-09 10:51:00,
2013-03-09 05:56:00,28.0,19.5,30.18,NNW,338,7.2,7.2,70,0.00,,,0.00,VWS V14.01,2013-03-09 10:56:00,
2013-03-09 06:00:00,28.4,19.2,30.24,NW,315,8.7,8.7,68,0.00,,,0.00,VWS V14.01,2013-03-09 11:00:00,
2013-03-09 06:01:00,28.0,19.5,30.18,NNW,338,10.1,10.1,70,0.00,,,0.00,VWS V14.01,2013-03-09 11:01:00,
2013-03-09 06:06:00,28.2,19.7,30.18,NNW,338,6.0,10.1,70,0.00,,,0.00,VWS V14.01,2013-03-09 11:06:00,
2013-03-09 06:11:00,28.2,19.7,30.21,North,0,6.3,7.6,70,0.00,,,0.00,VWS V14.01,2013-03-09 11:11:00,
2013-03-09 06:16:00,28.2,19.7,30.21,NNW,338,6.0,6.7,70,0.00,,,0.00,VWS V14.01,2013-03-09 11:16:00,
2013-03-09 06:21:00,28.2,19.7,30.21,NNW,338,7.2,7.2,70,0.00,,,0.00,VWS V14.01,2013-03-09 11:21:00,
2013-03-09 06:26:00,28.2,19.7,30.21,NNW,338,2.7,7.2,70,0.00,,,0.00,VWS V14.01,2013-03-09 11:26:00,
2013-03-09 06:30:00,29.5,18.1,30.24,NNW,338,4.0,5.8,62,0.00,,,0.00,VWS V14.01,2013-03-09 11:30:00,
2013-03-09 06:31:00,28.2,19.7,30.21,NNW,338,2.7,6.0,70,0.00,,,0.00,VWS V14.01,2013-03-09 11:31:00,
2013-03-09 06:36:00,28.2,19.4,30.21,NNW,338,5.6,5.6,69,0.00,,,0.00,VWS V14.01,2013-03-09 11:36:00,
2013-03-09 06:41:00,28.2,19.4,30.24,NNW,338,5.6,5.6,69,0.00,,,0.00,VWS V14.01,2013-03-09 11:41:00,
2013-03-09 06:46:00,28.4,19.2,30.24,North,0,4.9,5.6,68,0.00,,,0.00,VWS V14.01,2013-03-09 11:46:00,
2013-03-09 06:51:00,28.4,19.2,30.24,NNW,338,5.4,5.4,68,0.00,,,0.00,VWS V14.01,2013-03-09 11:51:00,
2013-03-09 06:56:00,28.4,19.2,30.24,NW,315,7.8,8.7,68,0.00,,,0.00,VWS V14.01,2013-03-09 11:56:00,
2013-03-09 07:00:00,30.9,17.5,30.24,NE,45,3.4,8.7,57,0.00,,,0.00,VWS V14.01,2013-03-09 12:00:00,
2013-03-09 07:01:00,28.9,18.7,30.24,NNW,338,3.1,8.7,65,0.00,,,0.00,VWS V14.01,2013-03-09 12:01:00,
2013-03-09 07:06:00,28.9,18.7,30.24,NNW,338,3.1,3.4,65,0.00,,,0.00,VWS V14.01,2013-03-09 12:06:00,
2013-03-09 07:11:00,29.1,18.8,30.24,NNW,338,2.7,4.7,65,0.00,,,0.00,VWS V14.01,2013-03-09 12:11:00,
2013-03-09 07:16:00,29.3,18.3,30.24,NNW,338,3.1,4.5,63,0.00,,,0.00,VWS V14.01,2013-03-09 12:16:00,
2013-03-09 07:21:00,29.3,18.3,30.24,NNW,338,3.8,10.5,63,0.00,,,0.00,VWS V14.01,2013-03-09 12:21:00,
2013-03-09 07:26:00,29.5,18.1,30.24,NW,315,4.3,9.0,62,0.00,,,0.00,VWS V14.01,2013-03-09 12:26:00,
2013-03-09 07:30:00,33.1,17.8,30.27,WNW,292,1.6,4.0,53,0.00,,,0.00,VWS V14.01,2013-03-09 12:30:00,
2013-03-09 07:31:00,29.7,17.9,30.24,NNW,338,7.6,7.6,61,0.00,,,0.00,VWS V14.01,2013-03-09 12:31:00,
2013-03-09 07:36:00,29.8,18.0,30.24,NW,315,7.4,7.4,61,0.00,,,0.00,VWS V14.01,2013-03-09 12:36:00,
2013-03-09 07:41:00,30.2,18.0,30.24,NNW,338,2.9,5.6,60,0.00,,,0.00,VWS V14.01,2013-03-09 12:41:00,
2013-03-09 07:46:00,30.6,17.6,30.24,NW,315,5.8,8.1,58,0.00,,,0.00,VWS V14.01,2013-03-09 12:46:00,
2013-03-09 07:51:00,30.7,17.7,30.24,NNW,338,6.7,7.2,58,0.00,,,0.00,VWS V14.01,2013-03-09 12:51:00,
2013-03-09 07:56:00,30.9,17.5,30.24,NNW,338,8.5,8.5,57,0.00,,,0.00,VWS V14.01,2013-03-09 12:56:00,
2013-03-09 08:00:00,37.2,16.3,30.24,North,0,5.8,5.8,42,0.00,,,0.00,VWS V14.01,2013-03-09 13:00:00,
2013-03-09 08:01:00,31.1,17.2,30.24,NNW,338,8.5,8.5,56,0.00,,,0.00,VWS V14.01,2013-03-09 13:01:00,
2013-03-09 08:06:00,31.6,17.3,30.24,ESE,112,6.0,6.0,55,0.00,,,0.00,VWS V14.01,2013-03-09 13:06:00,
2013-03-09 08:11:00,32.7,18.4,30.24,NW,315,4.0,5.8,55,0.00,,,0.00,VWS V14.01,2013-03-09 13:11:00,
2013-03-09 08:16:00,33.1,17.8,30.27,ENE,68,6.0,6.0,53,0.00,,,0.00,VWS V14.01,2013-03-09 13:16:00,
2013-03-09 08:21:00,33.1,17.8,30.27,WSW,248,3.6,6.0,53,0.00,,,0.00,VWS V14.01,2013-03-09 13:21:00,
2013-03-09 08:26:00,33.1,17.8,30.27,NNW,338,6.5,6.5,53,0.00,,,0.00,VWS V14.01,2013-03-09 13:26:00,
2013-03-09 08:30:00,39.7,16.8,30.27,NNW,338,2.0,8.5,39,0.00,,,0.00,VWS V14.01,2013-03-09 13:30:00,
2013-03-09 08:31:00,33.8,17.1,30.27,NNW,338,4.9,6.5,50,0.00,,,0.00,VWS V14.01,2013-03-09 13:31:00,
2013-03-09 08:36:00,35.1,17.8,30.27,WNW,292,3.4,4.9,49,0.00,,,0.00,VWS V14.01,2013-03-09 13:36:00,
2013-03-09 08:41:00,35.1,17.8,30.27,NW,315,4.9,6.0,49,0.00,,,0.00,VWS V14.01,2013-03-09 13:41:00,
2013-03-09 08:46:00,35.1,17.8,30.27,NW,315,9.8,9.8,49,0.00,,,0.00,VWS V14.01,2013-03-09 13:46:00,
2013-03-09 08:51:00,37.0,17.2,30.24,North,0,5.8,9.8,44,0.00,,,0.00,VWS V14.01,2013-03-09 13:51:00,
2013-03-09 08:56:00,37.2,16.3,30.24,North,0,5.8,5.8,42,0.00,,,0.00,VWS V14.01,2013-03-09 13:56:00,
2013-03-09 09:00:00,44.8,17.5,30.27,NNW,338,9.2,9.2,33,0.00,,,0.00,VWS V14.01,2013-03-09 14:00:00,
2013-03-09 09:01:00,38.7,17.0,30.24,WNW,292,3.8,5.8,41,0.00,,,0.00,VWS V14.01,2013-03-09 14:01:00,
2013-03-09 09:07:00,38.7,17.0,30.27,WNW,292,3.8,4.3,41,0.00,,,0.00,VWS V14.01,2013-03-09 14:07:00,
2013-03-09 09:12:00,39.7,17.4,30.27,NNW,338,5.4,6.3,40,0.00,,,0.00,VWS V14.01,2013-03-09 14:12:00,
2013-03-09 09:17:00,40.5,17.5,30.27,NNW,338,7.8,8.7,39,0.00,,,0.00,VWS V14.01,2013-03-09 14:17:00,
2013-03-09 09:22:00,39.7,16.8,30.27,NW,315,5.8,7.8,39,0.00,,,0.00,VWS V14.01,2013-03-09 14:22:00,
2013-03-09 09:27:00,39.7,16.8,30.27,NW,315,2.7,8.5,39,0.00,,,0.00,VWS V14.01,2013-03-09 14:27:00,
2013-03-09 09:30:00,39.7,16.8,30.27,NNW,338,2.0,8.5,39,0.00,,,0.00,VWS V14.01,2013-03-09 14:30:00,
2013-03-09 09:32:00,41.4,17.7,30.27,NNW,338,1.6,5.6,38,0.00,,,0.00,VWS V14.01,2013-03-09 14:32:00,
2013-03-09 09:37:00,41.4,17.7,30.27,WNW,292,3.4,6.0,38,0.00,,,0.00,VWS V14.01,2013-03-09 14:37:00,
2013-03-09 09:42:00,42.3,17.2,30.27,WNW,292,6.5,8.5,36,0.00,,,0.00,VWS V14.01,2013-03-09 14:42:00,
2013-03-09 09:47:00,41.2,15.6,30.27,NNW,338,9.2,10.3,35,0.00,,,0.00,VWS V14.01,2013-03-09 14:47:00,
2013-03-09 09:52:00,41.2,15.6,30.27,NNW,338,9.2,10.3,35,0.00,,,0.00,VWS V14.01,2013-03-09 14:52:00,
2013-03-09 09:57:00,44.8,17.5,30.27,NNW,338,9.2,9.2,33,0.00,,,0.00,VWS V14.01,2013-03-09 14:57:00,
2013-03-09 10:00:00,42.6,15.6,30.27,NW,315,6.3,10.5,33,0.00,,,0.00,VWS V14.01,2013-03-09 15:00:00,
2013-03-09 10:02:00,45.5,18.1,30.27,NNW,338,4.0,9.2,33,0.00,,,0.00,VWS V14.01,2013-03-09 15:02:00,
2013-03-09 10:07:00,45.5,18.1,30.27,WNW,292,6.5,6.5,33,0.00,,,0.00,VWS V14.01,2013-03-09 15:07:00,
2013-03-09 10:12:00,44.2,16.3,30.27,NNW,338,9.8,9.8,32,0.00,,,0.00,VWS V14.01,2013-03-09 15:12:00,
2013-03-09 10:17:00,44.1,16.1,30.27,NNW,338,5.4,9.8,32,0.00,,,0.00,VWS V14.01,2013-03-09 15:17:00,
2013-03-09 10:22:00,44.1,16.1,30.27,WSW,248,3.4,6.3,32,0.00,,,0.00,VWS V14.01,2013-03-09 15:22:00,
2013-03-09 10:27:00,44.1,16.1,30.27,ENE,68,4.7,6.3,32,0.00,,,0.00,VWS V14.01,2013-03-09 15:27:00,
2013-03-09 10:30:00,43.0,15.2,30.24,WNW,292,3.1,9.6,32,0.00,,,0.00,VWS V14.01,2013-03-09 15:30:00,
2013-03-09 10:32:00,44.1,16.1,30.27,NNW,338,8.5,8.5,32,0.00,,,0.00,VWS V14.01,2013-03-09 15:32:00,
2013-03-09 10:37:00,44.1,16.1,30.27,NNW,338,6.7,8.5,32,0.00,,,0.00,VWS V14.01,2013-03-09 15:37:00,
2013-03-09 10:42:00,42.8,15.0,30.27,NNW,338,2.7,7.6,32,0.00,,,0.00,VWS V14.01,2013-03-09 15:42:00,
2013-03-09 10:47:00,42.8,15.0,30.27,NNW,338,7.6,7.8,32,0.00,,,0.00,VWS V14.01,2013-03-09 15:47:00,
2013-03-09 10:52:00,42.8,15.0,30.27,NNW,338,6.0,10.5,32,0.00,,,0.00,VWS V14.01,2013-03-09 15:52:00,
2013-03-09 10:57:00,42.6,15.6,30.27,NW,315,6.3,10.5,33,0.00,,,0.00,VWS V14.01,2013-03-09 15:57:00,
2013-03-09 11:00:00,43.5,14.9,30.24,NNW,338,7.6,9.8,31,0.00,,,0.00,VWS V14.01,2013-03-09 16:00:00,
2013-03-09 11:02:00,42.6,15.6,30.27,NNW,338,6.3,7.8,33,0.00,,,0.00,VWS V14.01,2013-03-09 16:02:00,
2013-03-09 11:07:00,42.6,15.6,30.27,NNE,22,7.4,8.1,33,0.00,,,0.00,VWS V14.01,2013-03-09 16:07:00,
2013-03-09 11:12:00,42.6,15.6,30.27,NNW,338,5.8,8.5,33,0.00,,,0.00,VWS V14.01,2013-03-09 16:12:00,
2013-03-09 11:17:00,42.4,15.4,30.24,North,0,6.5,9.8,33,0.00,,,0.00,VWS V14.01,2013-03-09 16:17:00,
2013-03-09 11:22:00,43.0,15.2,30.24,NW,315,5.8,9.8,32,0.00,,,0.00,VWS V14.01,2013-03-09 16:22:00,
2013-03-09 11:27:00,43.0,15.2,30.24,WNW,292,3.1,9.6,32,0.00,,,0.00,VWS V14.01,2013-03-09 16:27:00,
2013-03-09 11:30:00,44.2,15.5,30.24,NNW,338,8.1,10.3,31,0.00,,,0.00,VWS V14.01,2013-03-09 16:30:00,
2013-03-09 11:32:00,43.0,15.2,30.24,NNE,22,10.5,10.5,32,0.00,,,0.00,VWS V14.01,2013-03-09 16:32:00,
2013-03-09 11:37:00,43.0,15.2,30.24,NNW,338,3.6,10.5,32,0.00,,,0.00,VWS V14.01,2013-03-09 16:37:00,
2013-03-09 11:42:00,43.0,15.2,30.24,NNW,338,7.6,9.2,32,0.00,,,0.00,VWS V14.01,2013-03-09 16:42:00,
2013-03-09 11:47:00,44.2,15.5,30.24,NW,315,7.2,11.2,31,0.00,,,0.00,VWS V14.01,2013-03-09 16:47:00,
2013-03-09 11:52:00,43.5,14.9,30.24,NNW,338,9.8,10.1,31,0.00,,,0.00,VWS V14.01,2013-03-09 16:52:00,
2013-03-09 11:57:00,43.5,14.9,30.24,NNW,338,1.6,8.7,31,0.00,,,0.00,VWS V14.01,2013-03-09 16:57:00,
2013-03-09 12:00:00,43.5,14.9,30.24,NNW,338,6.5,6.5,31,0.00,,,0.00,VWS V14.01,2013-03-09 17:00:00,
2013-03-09 12:02:00,44.6,15.9,30.24,North,0,3.8,7.6,31,0.00,,,0.00,VWS V14.01,2013-03-09 17:02:00,
2013-03-09 12:07:00,44.8,15.3,30.24,NW,315,7.6,13.4,30,0.00,,,0.00,VWS V14.01,2013-03-09 17:07:00,
2013-03-09 12:12:00,45.5,15.9,30.24,WNW,292,3.8,6.0,30,0.00,,,0.00,VWS V14.01,2013-03-09 17:12:00,
2013-03-09 12:17:00,44.8,15.3,30.24,NNW,338,9.8,10.5,30,0.00,,,0.00,VWS V14.01,2013-03-09 17:17:00,
2013-03-09 12:22:00,44.8,15.3,30.24,North,0,3.6,10.3,30,0.00,,,0.00,VWS V14.01,2013-03-09 17:22:00,
2013-03-09 12:27:00,44.1,15.4,30.24,NNW,338,4.3,11.4,31,0.00,,,0.00,VWS V14.01,2013-03-09 17:27:00,
2013-03-09 12:30:00,42.1,14.4,30.24,NNW,338,6.5,7.2,32,0.00,,,0.00,VWS V14.01,2013-03-09 17:30:00,
2013-03-09 12:32:00,44.1,15.4,30.24,NW,315,4.3,6.3,31,0.00,,,0.00,VWS V14.01,2013-03-09 17:32:00,
2013-03-09 12:37:00,44.1,15.4,30.24,NNW,338,4.9,7.4,31,0.00,,,0.00,VWS V14.01,2013-03-09 17:37:00,
2013-03-09 12:42:00,43.0,14.4,30.24,NNW,338,11.0,11.2,31,0.00,,,0.00,VWS V14.01,2013-03-09 17:42:00,
2013-03-09 12:47:00,43.0,14.4,30.24,NNW,338,4.9,6.3,31,0.00,,,0.00,VWS V14.01,2013-03-09 17:47:00,
2013-03-09 12:52:00,43.0,14.4,30.24,NW,315,4.5,8.5,31,0.00,,,0.00,VWS V14.01,2013-03-09 17:52:00,
2013-03-09 12:57:00,43.5,14.9,30.24,NNW,338,7.8,7.8,31,0.00,,,0.00,VWS V14.01,2013-03-09 17:57:00,
2013-03-09 13:00:00,41.7,14.1,30.24,NNW,338,10.3,10.3,32,0.00,,,0.00,VWS V14.01,2013-03-09 18:00:00,
2013-03-09 13:02:00,42.6,14.1,30.24,NW,315,7.8,9.6,31,0.00,,,0.00,VWS V14.01,2013-03-09 18:02:00,
2013-03-09 13:07:00,42.1,14.4,30.24,NNW,338,9.8,13.0,32,0.00,,,0.00,VWS V14.01,2013-03-09 18:07:00,
2013-03-09 13:12:00,42.1,14.4,30.24,NNW,338,6.0,10.5,32,0.00,,,0.00,VWS V14.01,2013-03-09 18:12:00,
2013-03-09 13:17:00,42.4,14.0,30.24,NNW,338,10.3,10.3,31,0.00,,,0.00,VWS V14.01,2013-03-09 18:17:00,
2013-03-09 13:23:00,42.1,14.4,30.24,NNW,338,7.2,8.7,32,0.00,,,0.00,VWS V14.01,2013-03-09 18:23:00,
2013-03-09 13:28:00,42.1,14.4,30.24,NNW,338,9.8,9.8,32,0.00,,,0.00,VWS V14.01,2013-03-09 18:28:00,
2013-03-09 13:30:00,41.5,13.9,30.24,NNW,338,7.4,7.8,32,0.00,,,0.00,VWS V14.01,2013-03-09 18:30:00,
2013-03-09 13:33:00,41.5,13.9,30.24,NNW,338,2.5,12.1,32,0.00,,,0.00,VWS V14.01,2013-03-09 18:33:00,
2013-03-09 13:38:00,41.7,14.1,30.24,NW,315,8.7,10.3,32,0.00,,,0.00,VWS V14.01,2013-03-09 18:38:00,
2013-03-09 13:43:00,41.4,14.4,30.24,NNW,338,6.3,12.3,33,0.00,,,0.00,VWS V14.01,2013-03-09 18:43:00,
2013-03-09 13:48:00,41.7,14.1,30.24,NNW,338,3.1,6.3,32,0.00,,,0.00,VWS V14.01,2013-03-09 18:48:00,
2013-03-09 13:53:00,41.7,14.1,30.24,NW,315,4.9,6.0,32,0.00,,,0.00,VWS V14.01,2013-03-09 18:53:00,
2013-03-09 13:58:00,41.7,14.1,30.24,East,90,5.4,10.3,32,0.00,,,0.00,VWS V14.01,2013-03-09 18:58:00,
2013-03-09 14:00:00,42.1,14.4,30.24,NW,315,5.4,10.7,32,0.00,,,0.00,VWS V14.01,2013-03-09 19:00:00,
2013-03-09 14:03:00,41.7,14.1,30.24,NNW,338,3.1,10.3,32,0.00,,,0.00,VWS V14.01,2013-03-09 19:03:00,
2013-03-09 14:08:00,41.7,14.1,30.24,NNW,338,7.6,10.5,32,0.00,,,0.00,VWS V14.01,2013-03-09 19:08:00,
2013-03-09 14:13:00,41.7,14.1,30.24,NNW,338,3.8,9.8,32,0.00,,,0.00,VWS V14.01,2013-03-09 19:13:00,
2013-03-09 14:18:00,41.7,14.1,30.24,NW,315,7.8,9.8,32,0.00,,,0.00,VWS V14.01,2013-03-09 19:18:00,
2013-03-09 14:23:00,41.5,13.9,30.24,NNW,338,7.4,7.8,32,0.00,,,0.00,VWS V14.01,2013-03-09 19:23:00,
2013-03-09 14:28:00,41.7,14.1,30.24,WNW,292,6.5,7.4,32,0.00,,,0.00,VWS V14.01,2013-03-09 19:28:00,
2013-03-09 14:30:00,42.1,14.4,30.24,NW,315,9.8,10.3,32,0.00,,,0.00,VWS V14.01,2013-03-09 19:30:00,
2013-03-09 14:33:00,41.5,13.9,30.24,NNW,338,5.4,7.4,32,0.00,,,0.00,VWS V14.01,2013-03-09 19:33:00,
2013-03-09 14:38:00,41.9,14.2,30.24,NNW,338,4.3,7.4,32,0.00,,,0.00,VWS V14.01,2013-03-09 19:38:00,
2013-03-09 14:43:00,41.9,14.2,30.24,NNE,22,3.8,9.6,32,0.00,,,0.00,VWS V14.01,2013-03-09 19:43:00,
2013-03-09 14:48:00,42.1,14.4,30.24,NW,315,3.8,7.4,32,0.00,,,0.00,VWS V14.01,2013-03-09 19:48:00,
2013-03-09 14:53:00,42.1,14.4,30.24,NNW,338,10.7,10.7,32,0.00,,,0.00,VWS V14.01,2013-03-09 19:53:00,
2013-03-09 14:58:00,42.1,14.4,30.24,NNW,338,4.3,7.2,32,0.00,,,0.00,VWS V14.01,2013-03-09 19:58:00,
2013-03-09 15:00:00,42.1,13.6,30.24,NNW,338,8.1,9.2,31,0.00,,,0.00,VWS V14.01,2013-03-09 20:00:00,
2013-03-09 15:03:00,42.1,14.4,30.24,WNW,292,3.8,6.3,32,0.00,,,0.00,VWS V14.01,2013-03-09 20:03:00,
2013-03-09 15:08:00,42.1,14.4,30.24,NW,315,4.9,5.8,32,0.00,,,0.00,VWS V14.01,2013-03-09 20:08:00,
2013-03-09 15:13:00,42.1,14.4,30.24,NW,315,7.6,7.6,32,0.00,,,0.00,VWS V14.01,2013-03-09 20:13:00,
2013-03-09 15:18:00,42.1,14.4,30.24,WNW,292,3.6,6.0,32,0.00,,,0.00,VWS V14.01,2013-03-09 20:18:00,
2013-03-09 15:23:00,42.1,14.4,30.24,NW,315,10.3,10.3,32,0.00,,,0.00,VWS V14.01,2013-03-09 20:23:00,
2013-03-09 15:28:00,42.1,14.4,30.24,NW,315,5.4,10.3,32,0.00,,,0.00,VWS V14.01,2013-03-09 20:28:00,
2013-03-09 15:30:00,42.4,14.0,30.24,NNW,338,2.0,4.9,31,0.00,,,0.00,VWS V14.01,2013-03-09 20:30:00,
2013-03-09 15:33:00,42.1,14.4,30.24,NNW,338,5.8,5.8,32,0.00,,,0.00,VWS V14.01,2013-03-09 20:33:00,
2013-03-09 15:38:00,42.1,14.4,30.24,NNE,22,1.3,5.8,32,0.00,,,0.00,VWS V14.01,2013-03-09 20:38:00,
2013-03-09 15:43:00,42.3,13.8,30.24,NNW,338,4.5,6.9,31,0.00,,,0.00,VWS V14.01,2013-03-09 20:43:00,
2013-03-09 15:48:00,42.3,13.8,30.24,NNW,338,6.5,8.1,31,0.00,,,0.00,VWS V14.01,2013-03-09 20:48:00,
2013-03-09 15:53:00,42.1,13.6,30.24,NNW,338,5.8,5.8,31,0.00,,,0.00,VWS V14.01,2013-03-09 20:53:00,
2013-03-09 15:58:00,42.1,13.6,30.24,NNW,338,1.1,9.2,31,0.00,,,0.00,VWS V14.01,2013-03-09 20:58:00,
2013-03-09 16:00:00,41.2,12.9,30.27,SSE,158,3.8,4.3,31,0.00,,,0.00,VWS V14.01,2013-03-09 21:00:00,
2013-03-09 16:03:00,42.1,13.6,30.24,North,0,4.3,4.3,31,0.00,,,0.00,VWS V14.01,2013-03-09 21:03:00,
2013-03-09 16:08:00,42.1,13.6,30.24,NNW,338,5.8,6.7,31,0.00,,,0.00,VWS V14.01,2013-03-09 21:08:00,
2013-03-09 16:13:00,42.1,13.6,30.24,ENE,68,8.5,8.5,31,0.00,,,0.00,VWS V14.01,2013-03-09 21:13:00,
2013-03-09 16:18:00,42.1,13.6,30.24,NNW,338,5.6,8.5,31,0.00,,,0.00,VWS V14.01,2013-03-09 21:18:00,
2013-03-09 16:23:00,42.1,13.6,30.24,NW,315,4.5,4.9,31,0.00,,,0.00,VWS V14.01,2013-03-09 21:23:00,
2013-03-09 16:28:00,42.4,14.0,30.24,NNW,338,2.5,4.0,31,0.00,,,0.00,VWS V14.01,2013-03-09 21:28:00,
2013-03-09 16:30:00,42.4,14.0,30.24,NNW,338,2.0,4.9,31,0.00,,,0.00,VWS V14.01,2013-03-09 21:30:00,
2013-03-09 16:33:00,42.4,14.0,30.27,NW,315,4.9,5.8,31,0.00,,,0.00,VWS V14.01,2013-03-09 21:33:00,
2013-03-09 16:38:00,42.1,13.6,30.27,NNW,338,3.1,5.8,31,0.00,,,0.00,VWS V14.01,2013-03-09 21:38:00,
2013-03-09 16:43:00,42.1,13.6,30.27,North,0,0.0,9.0,31,0.00,,,0.00,VWS V14.01,2013-03-09 21:43:00,
2013-03-09 16:48:00,42.1,13.6,30.27,ESE,112,1.6,4.3,31,0.00,,,0.00,VWS V14.01,2013-03-09 21:48:00,
2013-03-09 16:53:00,41.5,13.2,30.27,NNW,338,4.3,4.3,31,0.00,,,0.00,VWS V14.01,2013-03-09 21:53:00,
2013-03-09 16:58:00,41.2,12.9,30.27,East,90,4.3,6.3,31,0.00,,,0.00,VWS V14.01,2013-03-09 21:58:00,
2013-03-09 17:00:00,41.2,12.9,30.27,SSE,158,3.8,4.3,31,0.00,,,0.00,VWS V14.01,2013-03-09 22:00:00,
2013-03-09 17:03:00,41.2,12.9,30.24,North,0,1.1,3.1,31,0.00,,,0.00,VWS V14.01,2013-03-09 22:03:00,
2013-03-09 17:08:00,41.2,12.9,30.24,North,0,3.4,4.0,31,0.00,,,0.00,VWS V14.01,2013-03-09 22:08:00,
2013-03-09 17:13:00,41.2,12.9,30.24,North,0,0.0,2.7,31,0.00,,,0.00,VWS V14.01,2013-03-09 22:13:00,
2013-03-09 17:18:00,41.2,12.9,30.24,North,0,3.4,3.4,31,0.00,,,0.00,VWS V14.01,2013-03-09 22:18:00,
2013-03-09 17:23:00,41.2,12.9,30.24,NNW,338,1.6,3.4,31,0.00,,,0.00,VWS V14.01,2013-03-09 22:23:00,
2013-03-09 17:28:00,41.2,12.9,30.24,NNW,338,1.3,3.4,31,0.00,,,0.00,VWS V14.01,2013-03-09 22:28:00,
2013-03-09 17:30:00,41.2,12.9,30.30,NNW,338,0.0,0.0,31,0.00,,,0.00,VWS V14.01,2013-03-09 22:30:00,
2013-03-09 17:33:00,41.2,12.9,30.27,NNW,338,0.0,1.3,31,0.00,,,0.00,VWS V14.01,2013-03-09 22:33:00,
2013-03-09 17:38:00,41.2,12.9,30.27,NNW,338,2.0,2.0,31,0.00,,,0.00,VWS V14.01,2013-03-09 22:38:00,
2013-03-09 17:43:00,41.2,12.9,30.27,NNW,338,0.0,2.0,31,0.00,,,0.00,VWS V14.01,2013-03-09 22:43:00,
2013-03-09 17:48:00,41.2,12.9,30.27,NNW,338,0.0,1.1,31,0.00,,,0.00,VWS V14.01,2013-03-09 22:48:00,
2013-03-09 17:53:00,41.2,12.9,30.27,NNW,338,0.0,0.0,31,0.00,,,0.00,VWS V14.01,2013-03-09 22:53:00,
2013-03-09 17:58:00,41.2,12.9,30.27,NNW,338,0.0,0.0,31,0.00,,,0.00,VWS V14.01,2013-03-09 22:58:00,
2013-03-09 18:00:00,41.2,12.9,30.33,NNW,338,0.0,0.0,31,0.00,,,0.00,VWS V14.01,2013-03-09 23:00:00,
2013-03-09 18:03:00,41.2,12.9,30.30,NNW,338,0.0,0.0,31,0.00,,,0.00,VWS V14.01,2013-03-09 23:03:00,
2013-03-09 18:08:00,41.2,12.9,30.30,NNW,338,0.0,0.0,31,0.00,,,0.00,VWS V14.01,2013-03-09 23:08:00,
2013-03-09 18:14:00,41.2,12.9,30.30,NNW,338,0.0,0.0,31,0.00,,,0.00,VWS V14.01,2013-03-09 23:14:00,
2013-03-09 18:19:00,41.2,12.9,30.30,NNW,338,0.0,0.0,31,0.00,,,0.00,VWS V14.01,2013-03-09 23:19:00,
2013-03-09 18:24:00,41.2,12.9,30.30,NNW,338,0.0,0.0,31,0.00,,,0.00,VWS V14.01,2013-03-09 23:24:00,
2013-03-09 18:29:00,41.2,12.9,30.30,NNW,338,0.0,0.0,31,0.00,,,0.00,VWS V14.01,2013-03-09 23:29:00,
2013-03-09 18:30:00,41.2,12.9,30.30,NNW,338,0.0,0.0,31,0.00,,,0.00,VWS V14.01,2013-03-09 23:30:00,
2013-03-09 18:34:00,41.2,12.9,30.30,NNW,338,0.0,0.0,31,0.00,,,0.00,VWS V14.01,2013-03-09 23:34:00,
2013-03-09 18:39:00,41.2,12.9,30.33,NNW,338,0.0,0.0,31,0.00,,,0.00,VWS V14.01,2013-03-09 23:39:00,
2013-03-09 18:44:00,41.2,12.9,30.33,NNW,338,0.0,0.0,31,0.00,,,0.00,VWS V14.01,2013-03-09 23:44:00,
2013-03-09 18:49:00,41.2,12.9,30.33,NNW,338,0.0,0.0,31,0.00,,,0.00,VWS V14.01,2013-03-09 23:49:00,
2013-03-09 18:54:00,41.2,12.9,30.33,NNW,338,0.0,0.0,31,0.00,,,0.00,VWS V14.01,2013-03-09 23:54:00,
2013-03-09 18:59:00,41.2,12.9,30.33,NNW,338,0.0,0.0,31,0.00,,,0.00,VWS V14.01,2013-03-09 23:59:00,
2013-03-09 19:00:00,41.2,12.9,30.33,NNW,338,0.0,0.0,31,0.00,,,0.00,VWS V14.01,2013-03-10 00:00:00,
2013-03-09 19:04:00,41.2,12.9,30.33,NNW,338,0.0,0.0,31,0.00,,,0.00,VWS V14.01,2013-03-10 00:04:00,
2013-03-09 19:09:00,41.2,12.9,30.33,NNW,338,0.0,0.0,31,0.00,,,0.00,VWS V14.01,2013-03-10 00:09:00,
2013-03-09 19:14:00,41.2,12.9,30.33,NNW,338,0.0,0.0,31,0.00,,,0.00,VWS V14.01,2013-03-10 00:14:00,
2013-03-09 19:19:00,41.2,12.9,30.33,NNW,338,0.0,0.0,31,0.00,,,0.00,VWS V14.01,2013-03-10 00:19:00,
2013-03-09 19:24:00,41.2,12.9,30.33,NNW,338,0.0,0.0,31,0.00,,,0.00,VWS V14.01,2013-03-10 00:24:00,
2013-03-09 19:29:00,41.2,12.9,30.33,NNW,338,0.0,0.0,31,0.00,,,0.00,VWS V14.01,2013-03-10 00:29:00,
2013-03-09 19:30:00,41.2,12.9,30.33,WSW,248,1.6,1.6,31,0.00,,,0.00,VWS V14.01,2013-03-10 00:30:00,
2013-03-09 19:34:00,41.2,12.9,30.33,NNW,338,0.0,0.0,31,0.00,,,0.00,VWS V14.01,2013-03-10 00:34:00,
2013-03-09 19:39:00,41.2,12.9,30.33,NNW,338,0.0,0.0,31,0.00,,,0.00,VWS V14.01,2013-03-10 00:39:00,
2013-03-09 19:44:00,41.2,12.9,30.33,NNW,338,0.0,0.0,31,0.00,,,0.00,VWS V14.01,2013-03-10 00:44:00,
2013-03-09 19:49:00,41.2,12.9,30.33,NNW,338,0.0,0.0,31,0.00,,,0.00,VWS V14.01,2013-03-10 00:49:00,
2013-03-09 19:54:00,41.2,12.9,30.33,NNW,338,0.0,0.0,31,0.00,,,0.00,VWS V14.01,2013-03-10 00:54:00,
2013-03-09 19:59:00,41.2,12.9,30.33,NNW,338,0.0,0.0,31,0.00,,,0.00,VWS V14.01,2013-03-10 00:59:00,
2013-03-09 20:00:00,41.2,12.9,30.36,WSW,248,0.0,0.0,31,0.00,,,0.00,VWS V14.01,2013-03-10 01:00:00,
2013-03-09 20:04:00,41.2,12.9,30.33,NNW,338,0.0,0.0,31,0.00,,,0.00,VWS V14.01,2013-03-10 01:04:00,
2013-03-09 20:09:00,41.2,12.9,30.33,NNW,338,0.0,0.0,31,0.00,,,0.00,VWS V14.01,2013-03-10 01:09:00,
2013-03-09 20:14:00,41.2,12.9,30.33,NW,315,1.3,1.3,31,0.00,,,0.00,VWS V14.01,2013-03-10 01:14:00,
2013-03-09 20:19:00,41.2,12.9,30.33,West,270,0.0,2.7,31,0.00,,,0.00,VWS V14.01,2013-03-10 01:19:00,
2013-03-09 20:24:00,41.2,12.9,30.33,WSW,248,0.9,0.9,31,0.00,,,0.00,VWS V14.01,2013-03-10 01:24:00,
2013-03-09 20:29:00,41.2,12.9,30.33,WSW,248,0.0,0.0,31,0.00,,,0.00,VWS V14.01,2013-03-10 01:29:00,
2013-03-09 20:30:00,41.2,12.9,30.33,NW,315,0.0,1.6,31,0.00,,,0.00,VWS V14.01,2013-03-10 01:30:00,
2013-03-09 20:34:00,41.2,12.9,30.36,WSW,248,0.9,0.9,31,0.00,,,0.00,VWS V14.01,2013-03-10 01:34:00,
2013-03-09 20:39:00,41.2,12.9,30.36,WSW,248,2.0,2.0,31,0.00,,,0.00,VWS V14.01,2013-03-10 01:39:00,
2013-03-09 20:44:00,41.2,12.9,30.36,WSW,248,0.0,1.1,31,0.00,,,0.00,VWS V14.01,2013-03-10 01:44:00,
2013-03-09 20:49:00,41.2,12.9,30.36,WSW,248,0.0,0.0,31,0.00,,,0.00,VWS V14.01,2013-03-10 01:49:00,
2013-03-09 20:54:00,41.2,12.9,30.36,WSW,248,0.0,0.0,31,0.00,,,0.00,VWS V14.01,2013-03-10 01:54:00,
2013-03-09 20:59:00,41.2,12.9,30.36,WSW,248,0.0,0.0,31,0.00,,,0.00,VWS V14.01,2013-03-10 01:59:00,
2013-03-09 21:00:00,41.2,12.9,30.36,WSW,248,0.0,0.0,31,0.00,,,0.00,VWS V14.01,2013-03-10 02:00:00,
2013-03-09 21:04:00,41.2,12.9,30.30,WSW,248,2.0,2.0,31,0.00,,,0.00,VWS V14.01,2013-03-10 02:04:00,
2013-03-09 21:09:00,41.2,12.9,30.30,WSW,248,0.0,2.0,31,0.00,,,0.00,VWS V14.01,2013-03-10 02:09:00,
2013-03-09 21:14:00,41.2,12.9,30.30,WSW,248,0.0,2.0,31,0.00,,,0.00,VWS V14.01,2013-03-10 02:14:00,
2013-03-09 21:19:00,41.2,12.9,30.33,WSW,248,1.6,1.6,31,0.00,,,0.00,VWS V14.01,2013-03-10 02:19:00,
2013-03-09 21:24:00,41.2,12.9,30.33,WSW,248,1.6,1.6,31,0.00,,,0.00,VWS V14.01,2013-03-10 02:24:00,
2013-03-09 21:29:00,41.2,12.9,30.33,NW,315,0.0,1.6,31,0.00,,,0.00,VWS V14.01,2013-03-10 02:29:00,
2013-03-09 21:30:00,25.9,18.4,30.33,WSW,248,0.0,1.1,73,0.00,,,0.00,VWS V14.01,2013-03-10 02:30:00,
2013-03-09 21:34:00,25.7,17.6,30.33,WSW,248,3.4,3.4,71,0.00,,,0.00,VWS V14.01,2013-03-10 02:34:00,
2013-03-09 21:39:00,25.7,17.6,30.33,WSW,248,3.4,3.4,71,0.00,,,0.00,VWS V14.01,2013-03-10 02:39:00,
2013-03-09 21:44:00,26.2,18.8,30.33,NNW,338,0.0,3.4,73,0.00,,,0.00,VWS V14.01,2013-03-10 02:44:00,
2013-03-09 21:49:00,26.2,18.8,30.33,NNW,338,0.0,0.9,73,0.00,,,0.00,VWS V14.01,2013-03-10 02:49:00,
2013-03-09 21:54:00,26.2,18.8,30.33,NNW,338,0.0,0.0,73,0.00,,,0.00,VWS V14.01,2013-03-10 02:54:00,
2013-03-09 21:59:00,26.2,18.8,30.33,NNW,338,0.0,0.0,73,0.00,,,0.00,VWS V14.01,2013-03-10 02:59:00,
2013-03-09 22:00:00,25.3,19.5,30.33,NNW,338,1.1,1.1,78,0.00,,,0.00,VWS V14.01,2013-03-10 03:00:00,
2013-03-09 22:04:00,25.9,18.4,30.33,NNW,338,0.9,0.9,73,0.00,,,0.00,VWS V14.01,2013-03-10 03:04:00,
2013-03-09 22:09:00,25.9,18.4,30.33,NNW,338,0.0,0.9,73,0.00,,,0.00,VWS V14.01,2013-03-10 03:09:00,
2013-03-09 22:14:00,25.9,18.4,30.33,WSW,248,1.6,2.7,73,0.00,,,0.00,VWS V14.01,2013-03-10 03:14:00,
2013-03-09 22:19:00,25.9,18.4,30.33,WSW,248,1.1,2.7,73,0.00,,,0.00,VWS V14.01,2013-03-10 03:19:00,
2013-03-09 22:24:00,25.9,18.4,30.33,WSW,248,0.0,1.1,73,0.00,,,0.00,VWS V14.01,2013-03-10 03:24:00,
2013-03-09 22:29:00,25.9,18.4,30.33,WSW,248,0.0,1.1,73,0.00,,,0.00,VWS V14.01,2013-03-10 03:29:00,
2013-03-09 22:30:00,23.4,16.9,30.36,NNW,338,1.6,1.6,76,0.00,,,0.00,VWS V14.01,2013-03-10 03:30:00,
2013-03-09 22:35:00,25.3,18.9,30.33,NNW,338,3.6,3.6,76,0.00,,,0.00,VWS V14.01,2013-03-10 03:35:00,
2013-03-09 22:40:00,25.3,19.5,30.33,NNW,338,0.0,3.6,78,0.00,,,0.00,VWS V14.01,2013-03-10 03:40:00,
2013-03-09 22:45:00,25.3,19.5,30.33,NNW,338,1.1,1.3,78,0.00,,,0.00,VWS V14.01,2013-03-10 03:45:00,
2013-03-09 22:50:00,25.3,19.5,30.33,NNW,338,1.1,1.3,78,0.00,,,0.00,VWS V14.01,2013-03-10 03:50:00,
2013-03-09 22:55:00,25.3,19.5,30.33,NNW,338,1.1,1.1,78,0.00,,,0.00,VWS V14.01,2013-03-10 03:55:00,
2013-03-09 23:00:00,24.1,17.6,30.33,NNW,338,1.1,1.1,76,0.00,,,0.00,VWS V14.01,2013-03-10 04:00:00,
2013-03-09 23:05:00,24.1,17.6,30.33,NNW,338,0.0,1.1,76,0.00,,,0.00,VWS V14.01,2013-03-10 04:05:00,
2013-03-09 23:10:00,23.7,17.3,30.36,NNW,338,0.0,0.0,76,0.00,,,0.00,VWS V14.01,2013-03-10 04:10:00,
2013-03-09 23:15:00,23.5,17.1,30.36,NNW,338,0.0,0.0,76,0.00,,,0.00,VWS V14.01,2013-03-10 04:15:00,
2013-03-09 23:20:00,23.4,16.9,30.36,NNW,338,1.6,1.6,76,0.00,,,0.00,VWS V14.01,2013-03-10 04:20:00,
2013-03-09 23:25:00,23.4,16.9,30.36,NNW,338,1.6,1.6,76,0.00,,,0.00,VWS V14.01,2013-03-10 04:25:00,
2013-03-09 23:30:00,23.2,16.8,30.36,NNW,338,1.6,1.6,76,0.00,,,0.00,VWS V14.01,2013-03-10 04:30:00,
2013-03-09 23:35:00,23.4,17.2,30.36,NNW,338,2.7,2.7,77,0.00,,,0.00,VWS V14.01,2013-03-10 04:35:00,
2013-03-09 23:40:00,23.2,17.6,30.36,NNW,338,2.0,2.7,79,0.00,,,0.00,VWS V14.01,2013-03-10 04:40:00,
2013-03-09 23:45:00,23.0,17.8,30.36,NNW,338,2.0,2.0,80,0.00,,,0.00,VWS V14.01,2013-03-10 04:45:00,
2013-03-09 23:50:00,22.8,17.6,30.36,NNW,338,0.0,2.0,80,0.00,,,0.00,VWS V14.01,2013-03-10 04:50:00,
2013-03-09 23:55:00,22.8,17.6,30.36,NNW,338,0.0,0.0,80,0.00,,,0.00,VWS V14.01,2013-03-10 04:55:00,